LHPA

Pápa Air Base Airport

Pápa, Hungary
TAF LHPA 210515Z 2106/2206 17004KT CAVOK BECMG 2108/2110 20013KT TEMPO 2117/2120 20018G32KT 9999 SHRA TSRA FEW030CB SCT040TCU BECMG 2120/2122 8000 SHRA RA BKN025 OVC040 BECMG 2200/2202 34012G24KT TEMPO 2202/2206 -RA SCT015 BKN020
Issued Valid From Valid To
Jun-21 @ 05:15 UTC
(5 hours ago)
Jun-21 @ 06:00 UTC
(4 hours ago)
Jun-22 @ 06:00 UTC
(in 20 hours)
Expired Click to View Jun-21 @ 06:00 to Jun-21 @ 08:00
TAF LHPA 210515Z 2106/2206 17004KT CAVOK
Wind Visibility Clouds Conditions
170° at 4 knots 10,000+ meters
  • No significant clouds
Becoming Jun-21 @ 08:00 to Jun-21 @ 20:00
BECMG 2108/2110 20013KT
Wind Visibility Clouds Conditions
200° at 13 knots 10,000+ meters
  • No significant clouds
Temporary Jun-21 @ 17:00 to Jun-21 @ 20:00
TEMPO 2117/2120 20018G32KT 9999 SHRA TSRA FEW030CB SCT040TCU
Wind Visibility Clouds Conditions
200° at 18 knots
 Gusting to 32 knots
10,000+ meters
  • Few at 3,000' AGL
  • Scattered at 4,000' AGL
  • Rain
  • Thunderstorm
  • Rain
Becoming Jun-21 @ 20:00 to Jun-22 @ 00:00
BECMG 2120/2122 8000 SHRA RA BKN025 OVC040
Wind Visibility Clouds Conditions
200° at 13 knots 7,998 meters
  • Broken at 2,500' AGL
  • Overcast at 4,000' AGL
  • Rain
  • Rain
Becoming Jun-22 @ 00:00 to Jun-22 @ 06:00
BECMG 2200/2202 34012G24KT
Wind Visibility Clouds Conditions
340° at 12 knots
 Gusting to 24 knots
7,998 meters
  • Broken at 2,500' AGL
  • Overcast at 4,000' AGL
  • Rain
  • Rain
Temporary Jun-22 @ 02:00 to Jun-22 @ 06:00
TEMPO 2202/2206 -RA SCT015 BKN020
Clouds Conditions
  • Scattered at 1,500' AGL
  • Broken at 2,000' AGL
  • Light Rain
TAF LHPA 210515Z 2106/2206 17004KT CAVOK BECMG 2108/2110 20013KT TEMPO 2117/2120 20018G32KT 9999 SHRA TSRA FEW030CB SCT040TCU BECMG 2120/2122 8000 SHRA RA BKN025 OVC040 BECMG 2200/2202 34012G24KT TEMPO 2202/2206 -RA SCT015 BKN020
Issued Jun-21 @ 05:15 UTC
(5 hours ago)
Valid From Jun-21 @ 06:00 UTC
(4 hours ago)
Valid To Jun-22 @ 06:00 UTC
(in 20 hours)
Jun-21 @ 06:00 - Jun-21 @ 08:00
Wind Visibility
170° at 4 knots 10,000+ meters
Clouds
  • No significant clouds
Conditions
Becoming Jun-21 @ 08:00 - Jun-21 @ 20:00
Wind Visibility
200° at 13 knots 10,000+ meters
Clouds
  • No significant clouds
Conditions
Temporary Jun-21 @ 17:00 - Jun-21 @ 20:00
Wind Visibility
200° at 18 knots
 Gusting to 32 knots
10,000+ meters
Clouds
  • Few at 3,000' AGL
  • Scattered at 4,000' AGL
Conditions
  • Rain
  • Thunderstorm
  • Rain
Becoming Jun-21 @ 20:00 - Jun-22 @ 00:00
Wind Visibility
200° at 13 knots 7,998 meters
Clouds
  • Broken at 2,500' AGL
  • Overcast at 4,000' AGL
Conditions
  • Rain
  • Rain
Becoming Jun-22 @ 00:00 - Jun-22 @ 06:00
Wind Visibility
340° at 12 knots
 Gusting to 24 knots
7,998 meters
Clouds
  • Broken at 2,500' AGL
  • Overcast at 4,000' AGL
Conditions
  • Rain
  • Rain
Temporary Jun-22 @ 02:00 - Jun-22 @ 06:00
Clouds
  • Scattered at 1,500' AGL
  • Broken at 2,000' AGL
Conditions
  • Light Rain